createdAt,value
2019-05-11T00:00:39.045Z,7.40
2019-05-11T00:03:11.460Z,7.34
2019-05-11T00:05:45.540Z,7.16
2019-05-11T00:08:22.481Z,7.06
2019-05-11T00:10:55.438Z,7.06
2019-05-11T00:13:29.143Z,7.27
2019-05-11T00:16:00.583Z,7.32
2019-05-11T00:18:37.289Z,7.22
2019-05-11T00:21:07.581Z,7.16
2019-05-11T00:23:38.011Z,7.43
2019-05-11T00:26:17.390Z,7.18
2019-05-11T00:28:47.938Z,7.00
2019-05-11T00:31:20.305Z,6.65
2019-05-11T00:33:52.151Z,6.65
2019-05-11T00:36:28.921Z,6.86
2019-05-11T00:39:03.722Z,6.85
2019-05-11T00:41:38.896Z,6.69
2019-05-11T00:44:09.982Z,6.60
2019-05-11T00:46:40.362Z,6.81
2019-05-11T00:49:11.647Z,6.76
2019-05-11T00:51:56.990Z,6.54
2019-05-11T00:54:35.015Z,6.85
2019-05-11T00:57:12.966Z,6.50
2019-05-11T00:59:49.413Z,6.95
2019-05-11T01:02:22.687Z,6.69
2019-05-11T01:04:57.013Z,6.83
2019-05-11T01:07:28.764Z,6.72
2019-05-11T01:10:05.054Z,6.47
2019-05-11T01:12:38.713Z,6.39
2019-05-11T01:15:10.758Z,6.67
2019-05-11T01:17:56.476Z,6.68
2019-05-11T01:20:26.746Z,6.38
2019-05-11T01:23:00.211Z,6.28
2019-05-11T01:25:35.928Z,6.32
2019-05-11T01:28:06.065Z,6.10
2019-05-11T01:30:38.945Z,6.30
2019-05-11T01:33:11.044Z,6.31
2019-05-11T01:35:53.471Z,6.08
2019-05-11T01:38:26.574Z,6.17
2019-05-11T01:40:59.278Z,6.18
2019-05-11T01:43:30.879Z,6.31
2019-05-11T01:46:06.184Z,6.47
2019-05-11T01:48:40.463Z,6.62
2019-05-11T01:51:13.613Z,6.49
2019-05-11T01:53:49.054Z,6.52
2019-05-11T01:56:22.710Z,6.23
2019-05-11T01:59:12.479Z,6.25
2019-05-11T02:01:51.744Z,6.36
2019-05-11T02:04:22.416Z,6.03
2019-05-11T02:06:59.715Z,6.21
2019-05-11T02:09:38.787Z,6.24
2019-05-11T02:12:09.105Z,6.16
2019-05-11T02:14:41.660Z,6.11
2019-05-11T02:17:18.966Z,6.00
2019-05-11T02:19:49.752Z,5.96
2019-05-11T02:22:23.232Z,5.84
2019-05-11T02:24:57.217Z,5.95
2019-05-11T02:27:33.108Z,6.20
2019-05-11T02:30:06.478Z,5.94
2019-05-11T02:32:46.006Z,5.84
2019-05-11T02:35:16.655Z,6.02
2019-05-11T02:37:52.069Z,6.18
2019-05-11T02:40:25.653Z,5.82
2019-05-11T02:43:00.225Z,6.15
2019-05-11T02:45:48.082Z,5.96
2019-05-11T02:48:26.841Z,5.92
2019-05-11T02:51:01.376Z,5.85
2019-05-11T02:53:38.890Z,5.74
2019-05-11T02:56:11.266Z,5.64
2019-05-11T02:58:42.007Z,5.68
2019-05-11T03:01:14.201Z,5.56
2019-05-11T03:03:48.652Z,5.70
2019-05-11T03:06:21.090Z,5.64
2019-05-11T03:08:54.403Z,5.75
2019-05-11T03:11:25.288Z,5.70
2019-05-11T03:14:01.037Z,5.65
2019-05-11T03:16:32.418Z,5.67
2019-05-11T03:19:05.515Z,5.68
2019-05-11T03:21:37.238Z,5.49
2019-05-11T03:24:09.789Z,5.46
2019-05-11T03:26:45.924Z,5.47
2019-05-11T03:29:18.206Z,5.66
2019-05-11T03:31:55.382Z,5.66
2019-05-11T03:34:32.126Z,5.58
2019-05-11T03:37:03.966Z,5.60
2019-05-11T03:39:42.977Z,5.60
2019-05-11T03:42:17.464Z,5.54
2019-05-11T03:44:56.000Z,5.68
2019-05-11T03:47:29.883Z,5.33
2019-05-11T03:50:01.041Z,5.42
2019-05-11T03:52:33.904Z,5.49
2019-05-11T03:55:17.096Z,5.49
2019-05-11T03:57:49.877Z,5.58
2019-05-11T04:00:33.811Z,5.55
2019-05-11T04:03:07.408Z,5.72
2019-05-11T04:05:39.083Z,5.70
2019-05-11T04:08:12.948Z,5.61
2019-05-11T04:10:48.622Z,5.97
2019-05-11T04:13:23.603Z,5.85
2019-05-11T04:15:59.344Z,5.72
2019-05-11T04:18:35.224Z,5.68
2019-05-11T04:21:07.966Z,5.58
2019-05-11T04:23:38.285Z,5.82
2019-05-11T04:26:16.256Z,5.69
2019-05-11T04:28:53.947Z,5.75
2019-05-11T04:31:27.070Z,5.62
2019-05-11T04:33:58.680Z,5.89
2019-05-11T04:36:39.368Z,5.73
2019-05-11T04:39:20.099Z,5.77
2019-05-11T04:41:52.336Z,5.88
2019-05-11T04:44:33.949Z,6.10
2019-05-11T04:47:05.844Z,6.05
2019-05-11T04:49:39.410Z,5.96
2019-05-11T04:52:09.754Z,6.14
2019-05-11T04:54:44.385Z,6.28
2019-05-11T04:57:17.498Z,6.35
2019-05-11T04:59:49.400Z,6.24
2019-05-11T05:02:27.255Z,6.38
2019-05-11T05:04:59.132Z,6.54
2019-05-11T05:07:31.934Z,6.53
2019-05-11T05:10:14.126Z,6.48
2019-05-11T05:12:50.412Z,6.56
2019-05-11T05:15:18.070Z,6.72
2019-05-11T05:18:15.755Z,6.80
2019-05-11T05:20:49.749Z,6.86
2019-05-11T05:23:25.558Z,6.83
2019-05-11T05:29:43.348Z,7.07
2019-05-11T05:32:23.116Z,7.11
2019-05-11T05:36:09.915Z,7.37
2019-05-11T05:39:10.618Z,7.45
2019-05-11T05:46:23.291Z,7.57
2019-05-11T05:50:15.208Z,7.70
2019-05-11T05:53:10.595Z,7.81
2019-05-11T05:55:52.955Z,7.90
2019-05-11T05:58:42.086Z,7.98
2019-05-11T06:01:12.935Z,8.09
2019-05-11T06:03:44.882Z,8.19
2019-05-11T06:06:15.277Z,8.24
2019-05-11T06:08:45.515Z,8.27
2019-05-11T06:11:15.761Z,8.28
2019-05-11T06:13:47.085Z,8.34
2019-05-11T06:16:17.342Z,8.27
2019-05-11T06:18:47.555Z,8.42
2019-05-11T06:21:17.724Z,8.50
2019-05-11T06:23:48.089Z,8.53
2019-05-11T06:26:18.359Z,8.59
2019-05-11T06:28:48.610Z,8.69
2019-05-11T06:31:22.924Z,8.84
2019-05-11T06:33:55.052Z,8.86
2019-05-11T06:36:24.953Z,9.01
2019-05-11T06:38:55.201Z,9.08
2019-05-11T06:41:25.437Z,9.13
2019-05-11T06:44:01.679Z,9.14
2019-05-11T06:46:29.346Z,9.31
2019-05-11T06:49:02.755Z,9.14
2019-05-11T06:51:34.526Z,9.31
2019-05-11T06:54:04.689Z,9.33
2019-05-11T06:56:34.784Z,9.40
2019-05-11T06:59:05.051Z,9.38
2019-05-11T07:01:35.248Z,9.48
2019-05-11T07:04:05.965Z,9.53
2019-05-11T07:06:36.153Z,9.86
2019-05-11T07:09:07.682Z,9.98
2019-05-11T07:11:37.936Z,9.90
2019-05-11T07:14:20.015Z,10.04
2019-05-11T07:16:40.358Z,10.28
2019-05-11T07:19:10.610Z,10.11
2019-05-11T07:21:40.805Z,10.14
2019-05-11T07:24:10.919Z,10.29
2019-05-11T07:26:41.179Z,10.23
2019-05-11T07:29:12.383Z,10.15
2019-05-11T07:31:42.538Z,10.58
2019-05-11T07:34:12.630Z,10.57
2019-05-11T07:36:42.985Z,10.50
2019-05-11T07:39:13.219Z,10.46
2019-05-11T07:41:43.629Z,10.96
2019-05-11T07:44:34.674Z,10.82
2019-05-11T07:46:51.077Z,10.91
2019-05-11T07:49:23.462Z,11.02
2019-05-11T07:51:53.184Z,10.68
2019-05-11T07:54:23.395Z,10.51
2019-05-11T07:56:58.391Z,11.24
2019-05-11T07:59:29.085Z,11.33
2019-05-11T08:01:59.467Z,11.44
2019-05-11T08:04:29.641Z,11.21
2019-05-11T08:07:00.020Z,11.18
2019-05-11T08:09:30.208Z,10.84
2019-05-11T08:12:01.993Z,10.89
2019-05-11T08:14:32.252Z,11.10
2019-05-11T08:17:08.635Z,11.50
2019-05-11T08:19:38.809Z,11.56
2019-05-11T08:22:09.131Z,11.79
2019-05-11T08:24:39.500Z,11.68
2019-05-11T08:27:09.902Z,11.23
2019-05-11T08:29:40.057Z,11.61
2019-05-11T08:32:10.292Z,12.20
2019-05-11T08:34:45.098Z,12.24
2019-05-11T08:37:15.377Z,12.00
2019-05-11T08:39:48.030Z,11.50
2019-05-11T08:42:18.049Z,11.25
2019-05-11T08:44:48.459Z,12.07
2019-05-11T08:50:42.656Z,13.01
2019-05-11T08:53:15.221Z,12.47
2019-05-11T08:55:48.699Z,12.75
2019-05-11T08:58:20.572Z,12.81
2019-05-11T09:00:52.431Z,12.56
2019-05-11T09:03:22.696Z,11.66
2019-05-11T09:05:52.864Z,12.24
2019-05-11T09:08:23.141Z,12.00
2019-05-11T09:10:53.313Z,11.92
2019-05-11T09:13:23.556Z,12.59
2019-05-11T09:15:58.665Z,12.56
2019-05-11T09:18:28.365Z,13.25
2019-05-11T09:20:58.654Z,13.10
2019-05-11T09:23:36.573Z,12.83
2019-05-11T09:26:01.987Z,12.36
2019-05-11T09:28:32.232Z,12.90
2019-05-11T09:31:02.424Z,13.61
2019-05-11T09:33:33.012Z,13.90
2019-05-11T09:36:03.454Z,13.83
2019-05-11T09:38:39.411Z,13.71
2019-05-11T09:41:12.257Z,13.09
2019-05-11T09:43:44.332Z,13.30
2019-05-11T09:46:14.659Z,13.33
2019-05-11T09:48:44.879Z,12.64
2019-05-11T09:51:15.025Z,13.13
2019-05-11T09:53:45.386Z,13.84
2019-05-11T09:56:18.379Z,13.29
2019-05-11T09:58:48.524Z,13.50
2019-05-11T10:01:18.750Z,13.41
2019-05-11T10:03:48.951Z,12.78
2019-05-11T10:06:19.292Z,13.50
2019-05-11T10:08:49.414Z,12.84
2019-05-11T10:11:19.575Z,13.13
2019-05-11T10:13:49.876Z,12.81
2019-05-11T10:16:20.016Z,12.76
2019-05-11T10:18:50.248Z,12.96
2019-05-11T10:21:20.463Z,12.92
2019-05-11T10:23:50.693Z,13.49
2019-05-11T10:26:20.867Z,13.92
2019-05-11T10:28:51.130Z,13.50
2019-05-11T10:31:21.355Z,13.53
2019-05-11T10:33:51.488Z,12.85
2019-05-11T10:36:21.670Z,14.11
2019-05-11T10:38:51.814Z,13.86
2019-05-11T10:41:22.810Z,14.57
2019-05-11T10:43:53.006Z,15.03
2019-05-11T10:46:23.760Z,13.36
2019-05-11T10:48:54.250Z,13.33
2019-05-11T10:51:24.534Z,14.27
2019-05-11T10:53:57.742Z,14.16
2019-05-11T10:56:28.640Z,14.44
2019-05-11T10:58:58.851Z,14.53
2019-05-11T11:01:29.056Z,14.63
2019-05-11T11:03:59.272Z,15.12
2019-05-11T11:06:31.116Z,13.93
2019-05-11T11:09:01.287Z,14.25
2019-05-11T11:11:35.235Z,15.00
2019-05-11T11:14:05.485Z,14.86
2019-05-11T11:16:40.400Z,14.85
2019-05-11T11:19:07.741Z,15.12
2019-05-11T11:21:38.408Z,15.14
2019-05-11T11:24:08.761Z,15.15
2019-05-11T11:26:39.849Z,14.79
2019-05-11T11:29:10.148Z,14.91
2019-05-11T11:31:40.304Z,15.17
2019-05-11T11:34:10.502Z,14.71
2019-05-11T11:36:40.737Z,14.97
2019-05-11T11:39:10.942Z,14.93
2019-05-11T11:41:41.257Z,15.08
2019-05-11T11:44:15.466Z,15.21
2019-05-11T11:46:52.054Z,14.97
2019-05-11T11:49:18.784Z,15.22
2019-05-11T11:51:52.125Z,14.99
2019-05-11T11:54:23.635Z,15.27
2019-05-11T11:56:53.761Z,15.32
2019-05-11T11:59:24.659Z,15.72
2019-05-11T12:01:54.799Z,14.77
2019-05-11T12:04:25.074Z,15.09
2019-05-11T12:06:55.259Z,14.77
2019-05-11T12:09:25.752Z,15.39
2019-05-11T12:11:58.105Z,15.16
2019-05-11T12:14:28.488Z,14.86
2019-05-11T12:17:07.093Z,15.84
2019-05-11T12:19:30.682Z,15.09
2019-05-11T12:22:00.900Z,15.27
2019-05-11T12:24:31.080Z,15.32
2019-05-11T12:27:01.252Z,14.85
2019-05-11T12:29:31.429Z,15.47
2019-05-11T12:32:03.626Z,15.76
2019-05-11T12:34:34.816Z,15.10
2019-05-11T12:37:08.405Z,16.35
2019-05-11T12:39:38.629Z,15.84
2019-05-11T12:42:08.962Z,15.44
2019-05-11T12:44:39.147Z,15.69
2019-05-11T12:47:21.141Z,15.33
2019-05-11T12:49:42.243Z,16.30
2019-05-11T12:52:13.021Z,15.78
2019-05-11T12:54:43.124Z,16.89
2019-05-11T12:57:13.426Z,16.20
2019-05-11T12:59:43.566Z,16.04
2019-05-11T13:02:13.810Z,15.43
2019-05-11T13:04:44.011Z,15.11
2019-05-11T13:07:16.551Z,16.18
2019-05-11T13:09:49.274Z,15.81
2019-05-11T13:12:19.436Z,14.93
2019-05-11T13:14:49.601Z,15.21
2019-05-11T13:17:33.076Z,14.83
2019-05-11T13:19:51.828Z,15.30
2019-05-11T13:22:21.973Z,15.09
2019-05-11T13:24:52.170Z,14.94
2019-05-11T13:27:24.771Z,15.98
2019-05-11T13:29:54.949Z,16.35
2019-05-11T13:32:25.133Z,15.48
2019-05-11T13:34:55.311Z,15.23
2019-05-11T13:37:28.142Z,15.36
2019-05-11T13:39:57.997Z,15.19
2019-05-11T13:42:28.308Z,15.52
2019-05-11T13:44:58.552Z,15.28
2019-05-11T13:47:28.675Z,15.57
2019-05-11T13:49:58.947Z,15.24
2019-05-11T13:52:29.141Z,14.55
2019-05-11T13:54:59.279Z,14.80
2019-05-11T13:57:29.825Z,14.96
2019-05-11T14:00:00.032Z,15.62
2019-05-11T14:02:30.222Z,16.22
2019-05-11T14:05:00.353Z,16.05
2019-05-11T14:07:32.624Z,15.98
2019-05-11T14:10:04.059Z,16.58
2019-05-11T14:12:38.531Z,16.53
2019-05-11T14:15:09.406Z,15.72
2019-05-11T14:17:39.666Z,15.81
2019-05-11T14:20:10.577Z,15.83
2019-05-11T14:22:40.788Z,15.95
2019-05-11T14:25:11.419Z,15.55
2019-05-11T14:27:41.634Z,14.61
2019-05-11T14:30:12.345Z,14.87
2019-05-11T14:32:42.690Z,16.01
2019-05-11T14:35:13.147Z,14.90
2019-05-11T14:37:43.317Z,15.72
2019-05-11T14:40:13.730Z,15.86
2019-05-11T14:42:44.011Z,15.79
2019-05-11T14:45:15.761Z,15.70
2019-05-11T14:47:47.784Z,15.97
2019-05-11T14:50:19.646Z,15.40
2019-05-11T14:52:49.966Z,16.29
2019-05-11T14:55:20.218Z,14.92
2019-05-11T14:57:50.382Z,15.76
2019-05-11T15:00:21.056Z,16.40
2019-05-11T15:02:51.256Z,16.19
2019-05-11T15:05:44.612Z,16.32
2019-05-11T15:08:20.854Z,15.65
2019-05-11T15:10:51.106Z,15.63
2019-05-11T15:13:22.168Z,15.13
2019-05-11T15:15:52.330Z,16.10
2019-05-11T15:18:35.261Z,16.64
2019-05-11T15:20:54.544Z,14.37
2019-05-11T15:23:24.738Z,15.29
2019-05-11T15:25:54.936Z,15.61
2019-05-11T15:28:25.164Z,15.69
2019-05-11T15:30:58.727Z,16.43
2019-05-11T15:33:29.027Z,17.30
2019-05-11T15:36:00.153Z,16.83
2019-05-11T15:38:30.629Z,16.78
2019-05-11T15:41:00.864Z,16.34
2019-05-11T15:43:31.063Z,16.14
2019-05-11T15:46:01.163Z,16.40
2019-05-11T15:48:31.351Z,14.63
2019-05-11T15:51:01.500Z,13.72
2019-05-11T15:53:31.621Z,14.24
2019-05-11T15:56:02.189Z,15.15
2019-05-11T15:58:32.431Z,15.77
2019-05-11T16:01:02.744Z,15.97
2019-05-11T16:03:33.023Z,15.05
2019-05-11T16:06:03.175Z,14.65
2019-05-11T16:08:37.640Z,15.13
2019-05-11T16:11:08.369Z,15.73
2019-05-11T16:13:38.706Z,16.66
2019-05-11T16:16:08.998Z,15.78
2019-05-11T16:19:19.386Z,16.42
2019-05-11T16:22:22.978Z,15.12
2019-05-11T16:24:58.062Z,14.49
2019-05-11T16:27:28.539Z,14.28
2019-05-11T16:29:58.745Z,14.36
2019-05-11T16:32:28.989Z,14.82
2019-05-11T16:35:00.773Z,14.76
2019-05-11T16:37:33.398Z,15.60
2019-05-11T16:40:03.904Z,14.74
2019-05-11T16:42:34.020Z,14.93
2019-05-11T16:45:04.629Z,14.76
2019-05-11T16:47:35.980Z,15.35
2019-05-11T16:50:08.514Z,14.68
2019-05-11T16:52:38.815Z,14.12
2019-05-11T16:55:12.874Z,14.18
2019-05-11T16:57:43.201Z,13.74
2019-05-11T17:00:15.605Z,14.43
2019-05-11T17:02:45.801Z,13.90
2019-05-11T17:05:25.800Z,13.44
2019-05-11T17:07:48.480Z,12.77
2019-05-11T17:10:20.432Z,12.59
2019-05-11T17:12:50.738Z,12.69
2019-05-11T17:15:20.985Z,13.01
2019-05-11T17:17:51.290Z,12.50
2019-05-11T17:20:22.171Z,12.26
2019-05-11T17:22:53.896Z,13.17
2019-05-11T17:25:24.349Z,12.40
2019-05-11T17:27:58.624Z,11.96
2019-05-11T17:30:28.285Z,12.14
2019-05-11T17:32:59.324Z,12.86
2019-05-11T17:35:29.655Z,12.88
2019-05-11T17:38:01.188Z,12.82
2019-05-11T17:40:31.393Z,12.30
2019-05-11T17:43:03.171Z,12.45
2019-05-11T17:45:33.366Z,13.03
2019-05-11T17:48:05.180Z,13.05
2019-05-11T17:50:35.410Z,12.65
2019-05-11T17:53:05.619Z,12.10
2019-05-11T17:55:38.078Z,12.42
2019-05-11T17:58:08.732Z,13.13
2019-05-11T18:00:39.407Z,13.52
2019-05-11T18:03:11.165Z,13.24
2019-05-11T18:05:41.920Z,11.16
2019-05-11T18:08:13.036Z,11.47
2019-05-11T18:10:44.417Z,11.60
2019-05-11T18:13:14.631Z,11.53
2019-05-11T18:15:49.341Z,11.43
2019-05-11T18:18:19.597Z,11.38
2019-05-11T18:20:52.306Z,11.22
2019-05-11T18:23:22.488Z,11.49
2019-05-11T18:25:52.754Z,11.19
2019-05-11T18:28:22.992Z,11.31
2019-05-11T18:30:53.161Z,11.37
2019-05-11T18:33:23.505Z,11.06
2019-05-11T18:35:53.548Z,10.79
2019-05-11T18:38:23.749Z,10.90
2019-05-11T18:40:53.934Z,10.92
2019-05-11T18:43:24.108Z,11.18
2019-05-11T18:45:54.312Z,10.94
2019-05-11T18:48:24.521Z,10.92
2019-05-11T18:50:56.819Z,10.63
2019-05-11T18:53:28.715Z,10.40
2019-05-11T18:55:59.203Z,10.33
2019-05-11T18:58:30.608Z,10.24
2019-05-11T19:01:00.763Z,10.30
2019-05-11T19:03:30.978Z,10.26
2019-05-11T19:06:01.125Z,10.28
2019-05-11T19:08:31.292Z,10.01
2019-05-11T19:11:01.551Z,10.00
2019-05-11T19:13:31.716Z,9.80
2019-05-11T19:16:01.983Z,10.08
2019-05-11T19:18:33.222Z,9.82
2019-05-11T19:21:03.449Z,9.93
2019-05-11T19:23:33.758Z,10.00
2019-05-11T19:26:05.391Z,9.70
2019-05-11T19:28:38.433Z,9.72
2019-05-11T19:31:22.259Z,9.82
2019-05-11T19:34:17.687Z,9.53
2019-05-11T19:36:50.371Z,9.62
2019-05-11T19:39:21.551Z,9.74
2019-05-11T19:41:51.732Z,9.54
2019-05-11T19:44:22.721Z,9.53
2019-05-11T19:46:52.934Z,9.20
2019-05-11T19:49:23.297Z,9.11
2019-05-11T19:51:53.489Z,9.05
2019-05-11T19:54:23.724Z,9.09
2019-05-11T19:56:53.954Z,9.21
2019-05-11T19:59:24.103Z,9.21
2019-05-11T20:01:57.325Z,9.22
2019-05-11T20:04:28.175Z,9.13
2019-05-11T20:06:58.317Z,9.01
2019-05-11T20:09:28.551Z,8.84
2019-05-11T20:11:58.743Z,8.90
2019-05-11T20:14:29.092Z,8.78
2019-05-11T20:17:02.259Z,8.62
2019-05-11T20:19:34.545Z,8.63
2019-05-11T20:22:07.858Z,9.07
2019-05-11T20:24:40.371Z,8.97
2019-05-11T20:27:11.257Z,8.78
2019-05-11T20:29:42.021Z,9.01
2019-05-11T20:32:18.729Z,8.91
2019-05-11T20:34:54.746Z,8.69
2019-05-11T20:37:28.774Z,8.33
2019-05-11T20:40:03.273Z,8.57
2019-05-11T20:42:37.942Z,8.35
2019-05-11T20:45:09.757Z,8.35
2019-05-11T20:47:48.447Z,8.18
2019-05-11T20:50:18.835Z,8.03
2019-05-11T20:52:51.656Z,8.00
2019-05-11T20:55:28.560Z,7.98
2019-05-11T20:58:05.164Z,7.78
2019-05-11T21:00:45.173Z,7.70
2019-05-11T21:03:15.955Z,7.55
2019-05-11T21:05:48.239Z,7.42
2019-05-11T21:08:28.312Z,7.33
2019-05-11T21:10:58.273Z,7.12
2019-05-11T21:13:29.035Z,6.94
2019-05-11T21:16:05.122Z,7.00
2019-05-11T21:18:38.100Z,7.15
2019-05-11T21:21:18.314Z,7.03
2019-05-11T21:23:53.046Z,6.86
2019-05-11T21:26:23.976Z,6.94
2019-05-11T21:28:57.951Z,7.08
2019-05-11T21:31:29.119Z,6.89
2019-05-11T21:34:04.181Z,6.93
2019-05-11T21:36:34.497Z,6.90
2019-05-11T21:39:11.776Z,6.87
2019-05-11T21:41:42.106Z,7.07
2019-05-11T21:44:12.465Z,7.24
2019-05-11T21:46:42.729Z,7.06
2019-05-11T21:49:14.518Z,7.40
2019-05-11T21:51:45.323Z,7.57
2019-05-11T21:54:16.726Z,7.38
2019-05-11T21:56:48.764Z,7.31
2019-05-11T21:59:19.443Z,7.48
2019-05-11T22:01:50.149Z,7.56
2019-05-11T22:04:20.775Z,7.44
2019-05-11T22:06:51.418Z,7.62
2019-05-11T22:09:22.156Z,7.48
2019-05-11T22:11:52.496Z,7.22
2019-05-11T22:14:23.015Z,7.21
2019-05-11T22:16:53.216Z,7.17
2019-05-11T22:19:23.588Z,7.20
2019-05-11T22:21:53.992Z,7.28
2019-05-11T22:24:24.209Z,7.11
2019-05-11T22:26:57.462Z,7.17
2019-05-11T22:29:28.893Z,7.17
2019-05-11T22:31:59.146Z,6.83
2019-05-11T22:34:32.151Z,6.86
2019-05-11T22:37:02.334Z,6.61
2019-05-11T22:39:32.770Z,6.66
2019-05-11T22:42:03.007Z,6.47
2019-05-11T22:44:42.761Z,6.34
2019-05-11T22:47:13.002Z,6.14
2019-05-11T22:49:43.209Z,5.87
2019-05-11T22:52:13.498Z,6.01
2019-05-11T22:54:48.558Z,6.04
2019-05-11T22:57:32.327Z,5.97
2019-05-11T23:00:11.532Z,6.05
2019-05-11T23:02:43.734Z,6.11
2019-05-11T23:05:14.942Z,6.26
2019-05-11T23:07:47.680Z,6.11
2019-05-11T23:10:17.823Z,6.07
2019-05-11T23:12:49.983Z,6.17
2019-05-11T23:15:22.443Z,6.23
2019-05-11T23:17:55.298Z,6.18
2019-05-11T23:20:32.381Z,6.13
2019-05-11T23:23:02.526Z,6.02
2019-05-11T23:25:33.359Z,5.97
2019-05-11T23:28:03.497Z,5.96
2019-05-11T23:30:33.731Z,6.06
2019-05-11T23:33:03.905Z,6.10
2019-05-11T23:35:34.029Z,6.02
2019-05-11T23:38:05.156Z,5.75
2019-05-11T23:40:37.650Z,5.84
2019-05-11T23:43:08.760Z,5.96
2019-05-11T23:45:39.207Z,5.96
2019-05-11T23:48:09.359Z,5.73
2019-05-11T23:50:39.492Z,5.69
2019-05-11T23:53:10.424Z,5.71
2019-05-11T23:55:42.339Z,5.69
2019-05-11T23:58:12.516Z,5.65
